KBLH/BLH METAR and TAF weather

Enter ICAO airport designator
Station Type Date Time Source
KBLH METAR 2018/10/16 20:52 UTC NOAA

KBLH 162052Z AUTO 03008KT 10SM CLR 24/M08 A3002 RMK AO2 SLP159 T02441078 56016


Station Type Date Time Source
KBLH Decoded METAR 2018/10/16 20:52 UTC NOAA

BLYTHE AIRPORT, CA, United States (KBLH) 33-37N 114-43W 119M
Oct 16, 2018 - 04:52 PM EDT / 2018.10.16 2052 UTC
Wind: from the NNE (030 degrees) at 9 MPH (8 KT):0
Visibility: 10 mile(s):0
Sky conditions: clear
Temperature: 75.9 F (24.4 C)
Dew Point: 18.0 F (-7.8 C)
Relative Humidity: 11%
Pressure (altimeter): 30.02 in. Hg (1016 hPa)
Pressure tendency: 0.05 inches (1.6 hPa) lower than three hours ago
ob: KBLH 162052Z AUTO 03008KT 10SM CLR 24/M08 A3002 RMK AO2 SLP159 T02441078 56016
cycle: 21

Station Type Date Time Source
KBLH TAF 2018/10/16 18:36 UTC NOAA

TAF KBLH 161735Z 1618/1718 35013KT P6SM SKC
FM170200 36008KT P6SM SKC


Example: see airport list